Time;durP1;ratioP1;P1;durP2;ratioP2;P2;SDS_P1;SDS_P2;PMS_P1;PMS_P2;Temp;Humidity;BMP_temperature;BMP_pressure;BME280_temperature;BME280_humidity;BME280_pressure;Samples;Min_cycle;Max_cycle;Signal;HPM_P1;HPM_P2
2023/08/08 00:01:14;;;;;;;3.35;0.43;;;;;;;17.57;68.43;101277.75;7360745;19;20593;-66
2023/08/08 00:03:41;;;;;;;2.50;0.40;;;;;;;17.56;68.90;101273.44;7358398;19;20011;-66
2023/08/08 00:06:08;;;;;;;2.58;0.40;;;;;;;17.52;68.90;101293.47;7358732;19;20036;-65
2023/08/08 00:08:36;;;;;;;4.00;0.40;;;;;;;17.50;68.81;101282.16;7357836;19;20034;-66
2023/08/08 00:11:03;;;;;;;1.40;0.43;;;;;;;17.51;69.72;101281.16;7358567;19;20814;-66
2023/08/08 00:13:30;;;;;;;4.35;0.40;;;;;;;17.51;69.50;101282.00;7358751;19;20022;-65
2023/08/08 00:15:57;;;;;;;2.72;0.60;;;;;;;17.52;69.47;101286.28;7359009;19;20107;-67
2023/08/08 00:18:24;;;;;;;3.38;0.50;;;;;;;17.49;69.43;101270.69;7357787;19;20034;-66
2023/08/08 00:20:51;;;;;;;2.42;0.40;;;;;;;17.48;69.83;101270.88;7357593;19;20886;-68
2023/08/08 00:23:18;;;;;;;2.97;0.50;;;;;;;17.46;69.89;101272.91;7358125;19;20617;-66
2023/08/08 00:25:49;;;;;;;4.35;0.50;;;;;;;17.46;69.41;101264.94;7355515;19;20022;-66
2023/08/08 00:28:17;;;;;;;2.80;0.40;;;;;;;17.44;69.78;101265.13;7356635;19;20054;-66
2023/08/08 00:30:44;;;;;;;2.08;0.40;;;;;;;17.44;70.09;101262.44;7361236;19;20476;-66
2023/08/08 00:33:11;;;;;;;3.60;0.50;;;;;;;17.42;70.54;101256.47;7358864;19;20458;-66
2023/08/08 00:35:39;;;;;;;3.22;0.55;;;;;;;17.40;70.71;101247.06;7358705;19;20351;-66
2023/08/08 00:38:06;;;;;;;3.25;0.40;;;;;;;17.35;70.48;101250.28;7356837;19;20019;-66
2023/08/08 00:40:33;;;;;;;3.65;0.32;;;;;;;17.33;70.58;101246.97;7357631;19;20089;-66
2023/08/08 00:43:01;;;;;;;3.20;0.50;;;;;;;17.33;71.94;101238.16;7357148;19;20032;-67
2023/08/08 00:45:28;;;;;;;3.45;0.50;;;;;;;17.37;71.97;101239.47;7359018;19;20019;-66
2023/08/08 00:47:55;;;;;;;2.95;0.40;;;;;;;17.35;71.01;101231.66;7359108;19;20026;-66
2023/08/08 00:50:23;;;;;;;2.13;0.50;;;;;;;17.34;70.91;101234.50;7358563;19;20040;-68
2023/08/08 00:52:50;;;;;;;3.25;0.47;;;;;;;17.34;71.22;101227.34;7356172;19;20018;-65
2023/08/08 00:55:17;;;;;;;1.60;0.40;;;;;;;17.34;71.62;101226.50;7357843;19;20037;-66
2023/08/08 00:57:46;;;;;;;2.22;0.60;;;;;;;17.33;71.04;101225.69;7354856;19;20032;-66
2023/08/08 01:00:13;;;;;;;3.75;0.57;;;;;;;17.34;71.96;101226.50;7359676;19;20022;-66
2023/08/08 01:02:40;;;;;;;1.98;0.45;;;;;;;17.33;71.67;101227.50;7365074;19;20482;-65
2023/08/08 01:05:08;;;;;;;2.30;0.50;;;;;;;17.30;71.43;101222.56;7363516;19;20015;-66
2023/08/08 01:07:54;;;;;;;3.10;1.15;;;;;;;17.28;71.72;101227.25;7364313;19;20018;-66
2023/08/08 01:10:29;;;;;;;3.67;0.40;;;;;;;17.24;71.68;101220.66;7364906;19;20040;-66
2023/08/08 01:13:04;;;;;;;4.75;0.40;;;;;;;17.25;72.69;101214.34;7363733;19;20019;-66
2023/08/08 01:15:35;;;;;;;1.73;0.40;;;;;;;17.24;72.16;101213.50;7366160;19;20063;-66
2023/08/08 01:18:08;;;;;;;1.40;0.40;;;;;;;17.20;72.24;101204.25;7361914;19;20014;-66
2023/08/08 01:20:36;;;;;;;2.80;0.32;;;;;;;17.13;72.05;101205.19;7362679;19;20697;-66
2023/08/08 01:23:09;;;;;;;2.05;0.30;;;;;;;17.06;72.56;101207.78;7364111;19;20010;-68
2023/08/08 01:25:36;;;;;;;5.50;1.17;;;;;;;17.04;73.33;101201.81;7363340;19;20019;-66
2023/08/08 01:28:05;;;;;;;2.90;0.45;;;;;;;17.04;73.73;101202.63;7362184;19;20019;-67
2023/08/08 01:30:32;;;;;;;1.33;0.30;;;;;;;17.05;73.27;101206.13;7360800;19;20154;-66
2023/08/08 01:32:59;;;;;;;1.30;0.40;;;;;;;17.04;73.05;101191.16;7362949;19;20416;-65
2023/08/08 01:35:30;;;;;;;3.95;0.40;;;;;;;17.06;73.64;101195.31;7365926;19;20005;-66
2023/08/08 01:38:04;;;;;;;6.18;0.63;;;;;;;17.04;73.91;101196.47;7365187;19;20486;-66
2023/08/08 01:40:31;;;;;;;1.67;0.50;;;;;;;17.03;74.19;101216.09;7363415;19;20022;-66
2023/08/08 01:42:59;;;;;;;2.58;0.40;;;;;;;16.99;74.03;101205.03;7362423;19;20018;-67
2023/08/08 01:45:26;;;;;;;4.07;0.50;;;;;;;16.96;73.57;101215.22;7360112;19;20358;-66
2023/08/08 01:47:53;;;;;;;8.23;0.40;;;;;;;16.91;74.09;101214.94;7364906;19;20599;-67
2023/08/08 01:50:21;;;;;;;1.58;0.40;;;;;;;16.90;74.41;101207.97;7358311;19;20014;-66
2023/08/08 01:52:48;;;;;;;2.97;0.40;;;;;;;16.87;75.11;101221.59;7365382;19;20565;-66
2023/08/08 01:55:15;;;;;;;5.28;0.40;;;;;;;16.82;74.93;101208.88;7363177;19;20593;-66
2023/08/08 01:57:42;;;;;;;1.90;0.40;;;;;;;16.81;74.79;101219.72;7360268;19;20026;-66
2023/08/08 02:00:10;;;;;;;2.90;0.40;;;;;;;16.77;75.09;101213.91;7363984;19;20038;-68
2023/08/08 02:02:37;;;;;;;4.18;0.32;;;;;;;16.76;74.94;101222.91;7363964;19;20068;-65
2023/08/08 02:05:05;;;;;;;2.55;0.50;;;;;;;16.73;75.03;101223.28;7358263;19;20275;-66
2023/08/08 02:07:32;;;;;;;2.97;0.32;;;;;;;16.73;75.59;101225.09;7361963;19;20073;-65
2023/08/08 02:09:59;;;;;;;1.67;0.35;;;;;;;16.73;75.35;101225.09;7363490;19;20057;-65
2023/08/08 02:12:30;;;;;;;2.33;0.50;;;;;;;16.73;75.60;101217.13;7356071;19;20349;-67
2023/08/08 02:15:08;;;;;;;2.10;0.32;;;;;;;16.72;76.00;101216.31;7363767;19;20042;-66
2023/08/08 02:17:38;;;;;;;3.25;0.60;;;;;;;16.71;76.10;101213.84;7361653;19;20386;-66
2023/08/08 02:20:07;;;;;;;2.20;0.88;;;;;;;16.68;76.90;101213.19;7359914;19;20021;-66
2023/08/08 02:22:40;;;;;;;2.35;0.50;;;;;;;16.69;76.95;101200.72;7362725;19;20018;-65
2023/08/08 02:25:07;;;;;;;2.45;0.40;;;;;;;16.68;76.40;101209.72;7360104;19;20014;-67
2023/08/08 02:27:34;;;;;;;1.88;0.65;;;;;;;16.66;76.56;101198.44;7359906;19;20429;-66
2023/08/08 02:30:02;;;;;;;3.85;0.50;;;;;;;16.64;76.23;101201.28;7359697;19;20515;-66
2023/08/08 02:32:29;;;;;;;5.18;0.40;;;;;;;16.61;76.14;101195.50;7359153;19;20018;-66
2023/08/08 02:34:56;;;;;;;3.13;0.60;;;;;;;16.61;76.89;101187.53;7363780;19;20023;-68
2023/08/08 02:37:23;;;;;;;3.78;1.08;;;;;;;16.57;77.24;101176.41;7363517;19;20351;-67
2023/08/08 02:39:50;;;;;;;3.88;0.50;;;;;;;16.54;76.81;101190.06;7359751;19;20014;-66
2023/08/08 02:42:17;;;;;;;2.85;0.50;;;;;;;16.52;76.68;101194.72;7356621;19;20078;-66
2023/08/08 02:44:46;;;;;;;2.10;0.45;;;;;;;16.54;77.13;101198.03;7359898;19;20023;-65
2023/08/08 02:47:13;;;;;;;3.95;0.60;;;;;;;16.51;76.94;101195.72;7363144;19;20086;-65
2023/08/08 02:49:40;;;;;;;3.05;0.50;;;;;;;16.51;76.94;101194.91;7363840;19;20312;-66
2023/08/08 02:52:07;;;;;;;2.72;0.50;;;;;;;16.50;77.26;101191.44;7363355;19;20019;-65
2023/08/08 02:54:34;;;;;;;4.32;0.40;;;;;;;16.50;77.34;101183.47;7358176;19;20745;-66
2023/08/08 02:57:01;;;;;;;0.82;0.40;;;;;;;16.53;76.91;101185.75;7357928;19;20053;-66
2023/08/08 02:59:29;;;;;;;3.85;0.40;;;;;;;16.48;76.77;101182.81;7358638;19;20044;-66
2023/08/08 03:01:56;;;;;;;3.30;0.43;;;;;;;16.43;76.78;101185.22;7365119;19;20042;-66
2023/08/08 03:04:23;;;;;;;3.83;0.43;;;;;;;16.43;77.64;101193.19;7362723;19;20018;-65
2023/08/08 03:06:51;;;;;;;2.05;0.43;;;;;;;16.43;77.54;101184.38;7360702;19;20010;-65
2023/08/08 03:09:18;;;;;;;3.75;0.40;;;;;;;16.45;77.08;101185.84;7361104;19;20014;-66
2023/08/08 03:11:45;;;;;;;2.35;0.40;;;;;;;16.45;77.62;101185.84;7357787;19;20018;-65
2023/08/08 03:14:12;;;;;;;3.30;0.40;;;;;;;16.45;77.15;101183.19;7362812;19;20014;-66
2023/08/08 03:16:39;;;;;;;5.47;0.63;;;;;;;16.45;77.24;101193.81;7360936;19;20021;-66
2023/08/08 03:19:06;;;;;;;2.30;0.60;;;;;;;16.44;77.65;101189.53;7359700;19;20030;-66
2023/08/08 03:21:33;;;;;;;3.30;0.40;;;;;;;16.43;78.03;101201.16;7359291;19;20034;-66
2023/08/08 03:24:00;;;;;;;1.60;0.40;;;;;;;16.45;78.40;101195.66;7357522;19;20528;-66
2023/08/08 03:26:27;;;;;;;3.17;0.50;;;;;;;16.42;77.77;101194.19;7358528;19;20037;-66
2023/08/08 03:28:54;;;;;;;3.47;0.40;;;;;;;16.43;77.75;101208.28;7359974;19;20015;-66
2023/08/08 03:31:22;;;;;;;2.00;0.40;;;;;;;16.43;77.78;101208.28;7361621;19;20030;-65
2023/08/08 03:33:49;;;;;;;1.15;0.40;;;;;;;16.42;77.90;101203.97;7361583;19;20025;-66
2023/08/08 03:36:16;;;;;;;2.88;0.43;;;;;;;16.42;78.93;101209.28;7359943;19;20018;-67
2023/08/08 03:38:46;;;;;;;1.85;0.50;;;;;;;16.38;78.47;101208.84;7360116;19;20018;-66
2023/08/08 03:41:13;;;;;;;4.70;0.50;;;;;;;16.38;77.77;101215.97;7358257;19;20131;-66
2023/08/08 03:43:40;;;;;;;4.88;0.50;;;;;;;16.34;77.62;101206.72;7356332;19;20018;-65
2023/08/08 03:46:07;;;;;;;2.40;0.40;;;;;;;16.33;77.79;101202.41;7355804;19;20014;-66
2023/08/08 03:48:34;;;;;;;3.22;0.30;;;;;;;16.29;77.64;101201.13;7359573;19;20015;-65
2023/08/08 03:51:02;;;;;;;2.95;0.47;;;;;;;16.30;77.98;101195.66;7358882;19;20031;-66
2023/08/08 03:53:29;;;;;;;1.63;0.32;;;;;;;16.31;78.97;101193.78;7360210;19;20422;-66
2023/08/08 03:55:56;;;;;;;2.80;0.50;;;;;;;16.26;78.70;101184.53;7359152;19;20118;-66
2023/08/08 03:58:23;;;;;;;3.15;0.40;;;;;;;16.24;78.13;101191.88;7357367;19;20014;-66
2023/08/08 04:00:56;;;;;;;1.48;0.45;;;;;;;16.21;78.51;101183.44;7359941;19;20015;-66
2023/08/08 04:03:23;;;;;;;5.55;0.50;;;;;;;16.17;78.37;101177.66;7359170;19;20025;-66
2023/08/08 04:05:50;;;;;;;1.23;0.30;;;;;;;16.15;78.64;101179.66;7358953;19;20022;-66
2023/08/08 04:08:17;;;;;;;1.98;0.40;;;;;;;16.18;78.74;101189.09;7358101;19;20369;-66
2023/08/08 04:10:47;;;;;;;4.85;0.77;;;;;;;16.22;79.23;101185.91;7358754;19;21758;-66
2023/08/08 04:13:14;;;;;;;1.67;0.40;;;;;;;16.26;78.90;101189.84;7357545;19;20010;-69
2023/08/08 04:15:42;;;;;;;2.22;0.47;;;;;;;16.31;78.40;101188.47;7358327;19;20040;-66
2023/08/08 04:18:09;;;;;;;2.03;0.40;;;;;;;16.31;78.49;101194.63;7360357;19;20091;-66
2023/08/08 04:20:36;;;;;;;3.03;0.30;;;;;;;16.33;78.33;101200.59;7355670;19;20910;-66
2023/08/08 04:23:03;;;;;;;1.73;0.30;;;;;;;16.35;78.21;101200.41;7356570;19;20479;-66
2023/08/08 04:25:30;;;;;;;2.25;0.40;;;;;;;16.33;78.38;101208.53;7353935;19;20101;-65
2023/08/08 04:27:57;;;;;;;4.63;0.50;;;;;;;16.33;78.39;101197.94;7357223;19;20026;-66
2023/08/08 04:30:24;;;;;;;3.70;0.35;;;;;;;16.32;78.71;101201.59;7356701;19;20443;-66
2023/08/08 04:32:51;;;;;;;2.55;0.40;;;;;;;16.32;78.67;101206.06;7359811;19;20014;-66
2023/08/08 04:35:18;;;;;;;4.85;0.50;;;;;;;16.31;78.52;101199.94;7362381;19;20343;-66
2023/08/08 04:37:45;;;;;;;2.10;0.40;;;;;;;16.31;78.56;101194.63;7367981;19;20023;-66
2023/08/08 04:40:12;;;;;;;4.20;0.50;;;;;;;16.32;79.10;101193.63;7365076;19;20278;-66
2023/08/08 04:42:41;;;;;;;4.68;0.40;;;;;;;16.31;78.66;101186.66;7363941;19;20019;-66
2023/08/08 04:45:08;;;;;;;2.35;0.50;;;;;;;16.31;78.97;101184.00;7364343;19;20037;-66
2023/08/08 04:47:35;;;;;;;1.15;0.40;;;;;;;16.32;78.81;101185.66;7365253;19;20028;-66
2023/08/08 04:50:02;;;;;;;2.25;0.50;;;;;;;16.34;79.56;101182.81;7363103;19;20022;-66
2023/08/08 04:52:30;;;;;;;2.45;0.40;;;;;;;16.28;79.01;101187.03;7366154;19;20413;-66
2023/08/08 04:54:57;;;;;;;3.08;0.60;;;;;;;16.24;79.00;101199.84;7365555;19;20089;-67
2023/08/08 04:57:24;;;;;;;3.33;0.30;;;;;;;16.21;79.44;101191.38;7361117;19;20022;-66
2023/08/08 04:59:51;;;;;;;2.80;0.57;;;;;;;16.20;79.48;101193.22;7366839;19;20090;-66
2023/08/08 05:02:18;;;;;;;5.32;0.98;;;;;;;16.20;79.72;101190.56;7365201;19;20846;-66
2023/08/08 05:04:45;;;;;;;1.55;0.50;;;;;;;16.15;80.20;101184.97;7368041;19;20438;-66
2023/08/08 05:07:12;;;;;;;2.17;0.47;;;;;;;16.15;80.39;101192.94;7366552;19;20467;-66
2023/08/08 05:09:40;;;;;;;1.92;0.40;;;;;;;16.11;80.50;101189.00;7367246;19;20170;-66
2023/08/08 05:12:07;;;;;;;3.20;0.40;;;;;;;16.08;80.35;101189.38;7363375;19;20048;-66
2023/08/08 05:14:34;;;;;;;1.90;0.50;;;;;;;16.07;80.74;101194.84;7365773;19;20031;-66
2023/08/08 05:17:02;;;;;;;1.67;0.50;;;;;;;16.04;80.90;101185.44;7364366;19;20018;-67
2023/08/08 05:19:29;;;;;;;4.13;0.50;;;;;;;16.07;81.51;101174.44;7364448;19;20022;-65
2023/08/08 05:21:57;;;;;;;7.10;0.50;;;;;;;16.10;81.50;101170.63;7357851;19;20034;-66
2023/08/08 05:24:24;;;;;;;2.83;0.40;;;;;;;16.13;81.30;101170.25;7361808;19;20539;-66
2023/08/08 05:26:53;;;;;;;1.05;0.35;;;;;;;16.12;81.25;101165.94;7362972;19;20536;-65
2023/08/08 05:29:20;;;;;;;3.90;0.40;;;;;;;16.10;80.90;101162.66;7363930;19;20491;-65
2023/08/08 05:31:47;;;;;;;3.28;0.47;;;;;;;16.14;81.18;101169.25;7365173;19;20538;-68
2023/08/08 05:34:14;;;;;;;3.65;0.50;;;;;;;16.12;81.19;101164.09;7363083;19;20384;-65
2023/08/08 05:36:41;;;;;;;1.38;0.43;;;;;;;16.14;81.46;101169.25;7365272;19;20090;-65
2023/08/08 05:39:09;;;;;;;1.50;0.50;;;;;;;16.14;81.29;101166.59;7364224;19;20019;-65
2023/08/08 05:41:36;;;;;;;1.80;0.40;;;;;;;16.14;81.35;101170.06;7360945;19;20314;-65
2023/08/08 05:44:03;;;;;;;3.15;0.50;;;;;;;16.13;81.51;101164.94;7365146;19;20017;-65
2023/08/08 05:46:30;;;;;;;1.35;0.40;;;;;;;16.16;81.96;101160.06;7361597;19;21437;-65
2023/08/08 05:48:57;;;;;;;2.78;0.43;;;;;;;16.20;82.11;101163.22;7363294;19;20018;-66
2023/08/08 05:51:24;;;;;;;2.00;0.57;;;;;;;16.21;81.73;101162.19;7365764;19;20022;-66
2023/08/08 05:53:51;;;;;;;4.05;0.50;;;;;;;16.17;81.59;101167.03;7365701;19;20135;-67
2023/08/08 05:56:19;;;;;;;2.55;0.50;;;;;;;16.15;81.87;101163.72;7365633;19;20038;-66
2023/08/08 05:58:46;;;;;;;1.98;0.40;;;;;;;16.18;81.63;101160.72;7363178;19;20613;-67
2023/08/08 06:01:13;;;;;;;2.22;0.40;;;;;;;16.19;81.90;101157.06;7362092;19;20450;-66
2023/08/08 06:03:40;;;;;;;3.20;0.60;;;;;;;16.24;82.66;101159.19;7361234;19;20023;-66
2023/08/08 06:06:07;;;;;;;2.38;0.60;;;;;;;16.24;82.47;101157.34;7362106;19;20015;-65
2023/08/08 06:08:34;;;;;;;5.68;1.58;;;;;;;16.29;82.61;101148.00;7360173;19;20015;-66
2023/08/08 06:11:02;;;;;;;3.15;0.70;;;;;;;16.33;82.85;101149.28;7360882;19;20522;-65
2023/08/08 06:13:29;;;;;;;3.60;0.70;;;;;;;16.34;82.66;101149.13;7361207;19;20026;-65
2023/08/08 06:15:56;;;;;;;3.28;0.60;;;;;;;16.34;82.45;101161.56;7362452;19;20056;-67
2023/08/08 06:18:23;;;;;;;2.08;0.60;;;;;;;16.37;83.05;101163.84;7363556;19;20015;-66
2023/08/08 06:20:55;;;;;;;2.67;0.60;;;;;;;16.39;83.01;101157.38;7362558;19;20014;-65
2023/08/08 06:23:22;;;;;;;4.75;0.65;;;;;;;16.45;83.05;101166.44;7357822;19;20018;-66
2023/08/08 06:25:50;;;;;;;2.78;0.55;;;;;;;16.51;83.14;101163.84;7357278;19;20101;-67
2023/08/08 06:28:17;;;;;;;6.63;0.60;;;;;;;16.57;82.98;101167.63;7360350;19;20006;-65
2023/08/08 06:30:54;;;;;;;4.90;0.68;;;;;;;16.59;83.04;101161.16;7354769;19;20105;-65
2023/08/08 06:33:23;;;;;;;2.60;0.80;;;;;;;16.64;83.00;101163.25;7357874;19;20598;-67
2023/08/08 06:35:50;;;;;;;7.95;0.88;;;;;;;16.74;83.87;101171.78;7362866;19;20018;-65
2023/08/08 06:38:17;;;;;;;1.02;0.50;;;;;;;16.82;83.78;101170.84;7362407;19;20094;-65
2023/08/08 06:40:44;;;;;;;4.35;0.90;;;;;;;16.87;83.03;101163.13;7361440;19;20664;-65
2023/08/08 06:43:12;;;;;;;2.40;0.73;;;;;;;16.94;82.79;101161.38;7358190;19;20048;-67
2023/08/08 06:45:39;;;;;;;3.95;0.80;;;;;;;16.99;82.53;101157.16;7360096;19;20011;-66
2023/08/08 06:48:06;;;;;;;3.22;0.70;;;;;;;17.03;82.22;101155.78;7362012;19;20018;-66
2023/08/08 06:50:34;;;;;;;3.38;0.80;;;;;;;17.05;82.21;101169.72;7361039;19;20014;-65
2023/08/08 06:53:01;;;;;;;4.47;0.60;;;;;;;17.07;82.14;101167.69;7361243;19;20045;-65
2023/08/08 06:55:28;;;;;;;5.28;0.70;;;;;;;17.06;82.43;101159.91;7360082;19;20089;-65
2023/08/08 06:57:55;;;;;;;5.80;0.80;;;;;;;17.10;83.29;101161.19;7358056;19;20019;-67
2023/08/08 07:00:22;;;;;;;3.63;0.70;;;;;;;17.21;86.33;101163.34;7363192;19;20022;-66
2023/08/08 07:02:49;;;;;;;11.13;1.35;;;;;;;17.25;85.76;101161.97;7360997;19;20497;-66
2023/08/08 07:05:17;;;;;;;2.80;0.70;;;;;;;17.33;86.30;101169.81;7358311;19;20097;-66
2023/08/08 07:07:44;;;;;;;2.45;0.70;;;;;;;17.33;84.91;101158.34;7360121;19;20055;-66
2023/08/08 07:10:12;;;;;;;2.67;0.70;;;;;;;17.29;83.27;101151.75;7361581;19;20062;-66
2023/08/08 07:12:39;;;;;;;5.30;1.27;;;;;;;17.31;83.18;101141.78;7358718;19;20510;-66
2023/08/08 07:15:07;;;;;;;3.58;0.60;;;;;;;17.33;82.61;101151.19;7363484;19;20019;-65
2023/08/08 07:17:35;;;;;;;7.18;1.38;;;;;;;17.34;82.57;101160.81;7362809;19;20585;-66
2023/08/08 07:20:02;;;;;;;5.65;1.00;;;;;;;17.36;82.63;101158.00;7364076;19;20022;-66
2023/08/08 07:22:29;;;;;;;3.83;0.77;;;;;;;17.36;82.58;101150.00;7358795;19;20539;-66
2023/08/08 07:24:56;;;;;;;3.78;0.60;;;;;;;17.34;82.52;101150.19;7356695;19;20101;-66
2023/08/08 07:27:23;;;;;;;5.03;0.70;;;;;;;17.34;82.09;101158.16;7355537;19;21019;-70
2023/08/08 07:29:50;;;;;;;5.97;1.35;;;;;;;17.35;82.08;101162.47;7361147;19;20585;-69
2023/08/08 07:32:17;;;;;;;4.28;0.90;;;;;;;17.35;82.62;101153.69;7358052;19;20022;-66
2023/08/08 07:34:44;;;;;;;5.90;2.33;;;;;;;17.32;83.00;101146.88;7361479;19;20126;-66
2023/08/08 07:37:11;;;;;;;3.20;0.70;;;;;;;17.33;83.17;101147.69;7359769;19;20815;-66
2023/08/08 07:39:38;;;;;;;2.25;0.60;;;;;;;17.31;82.75;101145.25;7358050;19;20661;-66
2023/08/08 07:42:08;;;;;;;3.30;0.70;;;;;;;17.28;82.74;101144.78;7356353;19;20712;-66
2023/08/08 07:44:37;;;;;;;4.43;0.50;;;;;;;17.23;82.73;101145.34;7358942;19;20380;-66
2023/08/08 07:47:07;;;;;;;4.47;0.55;;;;;;;17.21;83.04;101144.75;7357850;19;20526;-66
2023/08/08 07:49:36;;;;;;;5.00;1.15;;;;;;;17.25;84.29;101138.03;7360605;19;20034;-66
2023/08/08 07:52:04;;;;;;;4.35;0.60;;;;;;;17.32;84.64;101138.91;7360778;19;20032;-66
2023/08/08 07:54:31;;;;;;;4.65;0.60;;;;;;;17.38;84.04;101146.13;7359594;19;20015;-65
2023/08/08 07:56:58;;;;;;;2.72;0.52;;;;;;;17.45;84.54;101147.03;7355018;19;20081;-65
2023/08/08 07:59:25;;;;;;;3.17;0.55;;;;;;;17.48;84.07;101153.78;7357873;19;20094;-67
2023/08/08 08:01:52;;;;;;;4.93;0.60;;;;;;;17.51;83.64;101150.78;7358946;19;20382;-65
2023/08/08 08:04:19;;;;;;;2.75;0.50;;;;;;;17.50;83.20;101151.78;7358795;19;20026;-66
2023/08/08 08:06:47;;;;;;;7.22;0.50;;;;;;;17.50;82.73;101144.63;7358222;19;20050;-66
2023/08/08 08:09:14;;;;;;;6.38;1.83;;;;;;;17.49;82.78;101147.47;7358514;19;20372;-66
2023/08/08 08:11:41;;;;;;;2.85;0.50;;;;;;;17.45;83.36;101144.38;7354685;19;20054;-65
2023/08/08 08:14:08;;;;;;;2.45;0.40;;;;;;;17.46;83.73;101146.03;7358861;19;20014;-67
2023/08/08 08:16:36;;;;;;;3.15;1.05;;;;;;;17.47;84.06;101146.84;7360732;19;20579;-67
2023/08/08 08:19:07;;;;;;;3.30;0.50;;;;;;;17.54;84.67;101151.22;7358008;19;20022;-66
2023/08/08 08:21:34;;;;;;;2.25;0.50;;;;;;;17.58;84.09;101154.31;7360443;19;20019;-66
2023/08/08 08:24:02;;;;;;;3.85;0.60;;;;;;;17.64;83.79;101144.75;7355533;19;20022;-66
2023/08/08 08:26:29;;;;;;;2.03;0.95;;;;;;;17.63;84.00;101146.59;7347701;19;20014;-65
2023/08/08 08:28:56;;;;;;;3.03;0.50;;;;;;;17.55;83.61;101152.03;7358541;19;20704;-66
2023/08/08 08:31:23;;;;;;;1.83;0.40;;;;;;;17.45;83.96;101155.00;7359552;19;20386;-66
2023/08/08 08:33:51;;;;;;;1.08;0.50;;;;;;;17.40;84.67;101148.63;7359619;19;20704;-66
2023/08/08 08:36:18;;;;;;;1.27;0.40;;;;;;;17.33;86.05;101150.38;7359039;19;20117;-66
2023/08/08 08:38:46;;;;;;;2.10;0.73;;;;;;;17.32;87.08;101159.38;7358844;19;20014;-65
2023/08/08 08:41:21;;;;;;;3.38;0.70;;;;;;;17.34;88.43;101160.00;7356870;19;20390;-67
2023/08/08 08:43:51;;;;;;;4.63;0.90;;;;;;;17.40;89.68;101154.75;7354999;19;20014;-65
2023/08/08 08:46:21;;;;;;;3.67;0.57;;;;;;;17.40;90.35;101154.75;7358567;19;20610;-65
2023/08/08 08:48:52;;;;;;;2.50;0.60;;;;;;;17.43;90.91;101153.53;7359874;19;20011;-65
2023/08/08 08:51:21;;;;;;;2.40;0.60;;;;;;;17.41;90.68;101147.59;7357701;19;20011;-65
2023/08/08 08:53:48;;;;;;;4.57;0.70;;;;;;;17.37;91.21;101154.31;7358228;19;20013;-68
2023/08/08 08:56:16;;;;;;;2.25;0.52;;;;;;;17.28;91.05;101156.25;7353574;19;20360;-67
2023/08/08 08:58:43;;;;;;;3.10;0.60;;;;;;;17.24;91.40;101151.50;7357414;19;20021;-66
2023/08/08 09:01:11;;;;;;;2.20;0.60;;;;;;;17.23;91.79;101149.84;7358813;19;20562;-65
2023/08/08 09:03:39;;;;;;;3.08;0.70;;;;;;;17.23;92.74;101156.00;7357548;19;21921;-66
2023/08/08 09:06:07;;;;;;;2.22;0.70;;;;;;;17.17;92.55;101148.75;7357424;19;20029;-66
2023/08/08 09:08:34;;;;;;;2.22;0.60;;;;;;;17.14;92.75;101149.16;7355327;19;20048;-66
2023/08/08 09:11:01;;;;;;;4.90;0.82;;;;;;;17.15;93.72;101150.81;7357166;19;20078;-66
2023/08/08 09:13:37;;;;;;;3.35;0.95;;;;;;;17.19;94.38;101148.59;7355967;19;20018;-66
2023/08/08 09:16:12;;;;;;;3.38;0.82;;;;;;;17.20;94.92;101153.72;7357865;19;20014;-66
2023/08/08 09:18:39;;;;;;;4.68;0.80;;;;;;;17.25;94.94;101153.16;7355497;19;20014;-66
2023/08/08 09:21:06;;;;;;;2.78;0.80;;;;;;;17.22;94.76;101150.88;7361595;19;20017;-66
2023/08/08 09:23:33;;;;;;;1.92;0.60;;;;;;;17.18;94.35;101155.72;7364311;19;20604;-67
2023/08/08 09:26:00;;;;;;;2.97;0.60;;;;;;;17.15;94.29;101152.63;7360238;19;20014;-65
2023/08/08 09:28:27;;;;;;;2.70;0.60;;;;;;;17.10;94.73;101154.03;7360213;19;20018;-65
2023/08/08 09:30:57;;;;;;;1.73;0.50;;;;;;;17.07;95.03;101141.09;7364606;19;20021;-66
2023/08/08 09:33:28;;;;;;;1.63;0.60;;;;;;;17.02;95.04;101129.38;7363585;19;20042;-65
2023/08/08 09:35:55;;;;;;;2.65;0.60;;;;;;;17.04;95.58;101132.66;7355316;19;20044;-66
2023/08/08 09:38:23;;;;;;;1.50;0.70;;;;;;;17.08;96.08;101125.97;7364778;19;20023;-66
2023/08/08 09:41:03;;;;;;;3.05;0.77;;;;;;;17.08;96.70;101140.09;7363510;19;20015;-66
2023/08/08 09:43:30;;;;;;;1.42;0.75;;;;;;;17.13;96.95;101138.69;7360018;19;20018;-67
2023/08/08 09:45:57;;;;;;;1.95;0.90;;;;;;;17.14;96.97;101130.53;7364062;19;20542;-66
2023/08/08 09:48:32;;;;;;;1.58;0.80;;;;;;;17.17;97.26;101134.66;7364817;19;20558;-73
2023/08/08 09:50:59;;;;;;;3.15;0.98;;;;;;;17.23;97.67;101136.56;7363715;19;20018;-67
2023/08/08 09:53:32;;;;;;;3.97;0.90;;;;;;;17.25;97.99;101138.03;7363796;19;20019;-65
2023/08/08 09:56:03;;;;;;;3.88;0.50;;;;;;;17.23;97.16;101137.38;7362177;19;20621;-66
2023/08/08 09:58:30;;;;;;;2.03;0.50;;;;;;;17.19;96.92;101136.13;7362009;19;20019;-65
2023/08/08 10:01:06;;;;;;;3.10;0.60;;;;;;;17.18;96.20;101123.81;7364321;19;20015;-66
2023/08/08 10:03:37;;;;;;;1.27;0.93;;;;;;;17.16;96.58;101123.22;7360761;19;20491;-65
2023/08/08 10:06:05;;;;;;;2.92;0.50;;;;;;;17.18;97.54;101121.16;7364865;19;20229;-66
2023/08/08 10:08:32;;;;;;;2.92;0.70;;;;;;;17.18;97.93;101117.69;7360140;19;20018;-66
2023/08/08 10:11:00;;;;;;;3.58;0.70;;;;;;;17.19;98.30;101116.66;7362215;19;21063;-65
2023/08/08 10:13:27;;;;;;;2.35;0.50;;;;;;;17.20;98.44;101120.97;7362184;19;20022;-65
2023/08/08 10:15:54;;;;;;;2.83;0.50;;;;;;;17.19;98.73;101120.16;7366247;19;20019;-65
2023/08/08 10:18:22;;;;;;;1.25;0.50;;;;;;;17.19;99.10;101111.34;7369124;19;20019;-65
2023/08/08 10:20:59;;;;;;;2.03;0.73;;;;;;;17.23;99.58;101109.94;7367737;19;20030;-65
2023/08/08 10:23:34;;;;;;;1.90;0.40;;;;;;;17.26;99.24;101117.56;7364548;19;20491;-65
2023/08/08 10:26:02;;;;;;;1.80;0.40;;;;;;;17.26;99.63;101114.91;7362659;19;20018;-65
2023/08/08 10:28:32;;;;;;;1.95;0.60;;;;;;;17.27;99.78;101113.91;7357274;19;20027;-65
2023/08/08 10:31:08;;;;;;;4.50;0.80;;;;;;;17.28;99.89;101113.69;7361723;19;20022;-65
2023/08/08 10:33:43;;;;;;;1.98;0.40;;;;;;;17.29;100.00;101107.38;7363442;19;20538;-65
2023/08/08 10:36:10;;;;;;;0.95;0.40;;;;;;;17.29;100.00;101104.72;7363438;19;20047;-66
2023/08/08 10:38:50;;;;;;;3.47;0.60;;;;;;;17.28;100.00;101103.06;7364328;19;20018;-65
2023/08/08 10:41:22;;;;;;;2.70;0.80;;;;;;;17.30;100.00;101095.72;7364961;19;20011;-65
2023/08/08 10:43:51;;;;;;;5.97;0.70;;;;;;;17.27;100.00;101095.28;7365697;19;20020;-66
2023/08/08 10:46:25;;;;;;;2.80;0.73;;;;;;;17.24;100.00;101095.66;7364601;19;20338;-65
2023/08/08 10:49:07;;;;;;;1.65;0.60;;;;;;;17.24;100.00;101087.66;7363310;19;20039;-66
2023/08/08 10:51:38;;;;;;;3.10;0.60;;;;;;;17.25;100.00;101087.50;7365442;19;20030;-64
2023/08/08 10:54:07;;;;;;;2.30;0.90;;;;;;;17.22;100.00;101085.19;7359330;19;20507;-65
2023/08/08 10:56:36;;;;;;;1.73;0.63;;;;;;;17.23;100.00;101081.53;7360105;19;20763;-65
2023/08/08 10:59:15;;;;;;;2.88;0.85;;;;;;;17.24;100.00;101077.84;7361805;19;20968;-66
2023/08/08 11:01:44;;;;;;;2.40;0.93;;;;;;;17.30;100.00;101076.28;7362513;19;20026;-65
2023/08/08 11:04:12;;;;;;;1.95;0.90;;;;;;;17.32;100.00;101075.06;7359033;19;20442;-65
2023/08/08 11:06:40;;;;;;;2.95;0.80;;;;;;;17.41;100.00;101075.78;7341482;19;20294;-66
2023/08/08 11:09:08;;;;;;;1.92;1.20;;;;;;;17.43;100.00;101073.72;7354788;19;20521;-66
2023/08/08 11:11:40;;;;;;;2.15;1.00;;;;;;;17.45;100.00;101069.88;7356255;19;20161;-65
2023/08/08 11:14:19;;;;;;;4.78;1.50;;;;;;;17.48;100.00;101077.47;7358186;19;20045;-65
2023/08/08 11:16:48;;;;;;;2.55;1.30;;;;;;;17.50;100.00;101071.94;7360079;19;20015;-66
2023/08/08 11:19:16;;;;;;;2.15;1.08;;;;;;;17.50;100.00;101061.31;7360537;19;20034;-65
2023/08/08 11:21:45;;;;;;;2.83;1.38;;;;;;;17.48;100.00;101061.50;7360685;19;20416;-65
2023/08/08 11:24:13;;;;;;;2.80;1.25;;;;;;;17.51;100.00;101071.78;7359148;19;20840;-66
2023/08/08 11:26:43;;;;;;;4.80;1.48;;;;;;;17.57;100.00;101072.00;7355877;19;20550;-66
2023/08/08 11:29:12;;;;;;;4.43;1.60;;;;;;;17.59;100.00;101077.94;7354841;19;20345;-66